HESN

Details ICAO HESN (ASW)
Name ASWAN INTL
Region Egypt
Timezone Africa/Cairo (UTC+2.0)
Plans Departing 31
Arriving 35
Stats Elevation 662 ft / 202 m (AMSL)
Location 23.964355° 32.819975°
Runways 1
Magnetic Variation 3.958° E
Sunrise 2017-12-11 04:22:52 UTC / 2017-12-11 06:22:52 Local
Sunset 2017-12-11 15:03:54 UTC / 2017-12-11 17:03:54 Local
Advertisement - Login to hide

Runways

ID Width Length Bearing (true) Bearing (mag) Surface Threshold Offset Overrun Length
17 148 ft / 45 m 11,207 ft / 3,416 m 170.93° 166.97° Asphalt 0 ft / 0 m 197 ft / 60 m
35 148 ft / 45 m 11,207 ft / 3,416 m 350.93° 346.97° Asphalt 0 ft / 0 m 197 ft / 60 m

Approach Navaids

Runway Type Ident Frequency Range Bearing (true) Bearing (mag) Slope Elevation
35 Localiser AIL 109.50 MHz 18 nm / 33 km 350.94° 346.98° - 623 ft / 190 m (AMSL)
35 Glidescope AIL 109.50 MHz 10 nm / 19 km 350.93° 346.97° 3.00° 682 ft / 208 m (AMSL)
35 DME AIL 109.50 MHz 18 nm / 33 km - - - 682 ft / 208 m (AMSL)

Map

Weather


0- 5 10 15 20 25 30 35+ Temperature / ° C

Clouds and Precipitation
Forecast for 2017-12-12 00:00 UTC. Updated 2 hours ago

Ground ~20,000 ft ~40,000 ft Winds

METAR

HESN 112000Z 02005KT CAVOK 21/06 Q1017 NOSIG

TAF

Not found

Frequencies

Tower 118.30 MHz TWR
Approach 123.72 MHz RADAR
Approach 119.35 MHz RADAR
Warning: Do not use this data for real-world aviation or navigation. No guarantee of current accuracy is given.